KLBL

Liberal Mid-America Regional Airport

Liberal, Kansas, USA
METAR KLBL 220956Z AUTO 18007KT 10SM CLR 16/14 A2999 RMK AO2 SLP129 T01610144
Observed Flight Rules
May-22 @ 09:56 UTC (14 minutes ago) Visual Flight Rules
Wind Visibility Clouds
180° at 7 knots 10 miles
  • Clear skies
Temperatures Readings
Current 16°C / 61°F
Dewpoint 14°C / 57°F
Humidity 88%
Altimeter 29.99" Hg
Pressure 1012.9 hPa
Elevation 879
METAR KLBL 220956Z AUTO 18007KT 10SM CLR 16/14 A2999 RMK AO2 SLP129 T01610144
Observed Flight Rules
May-22 @ 09:56 UTC
(14 minutes ago)
VFR
Wind Visibility
180° at 7 knots 10 miles
Clouds
  • Clear skies
Temperature Dewpoint
16°C / 61°F 14°C / 57°F
Humidity Altimeter Pressure
88% 29.99" Hg 1012.9 hPa